Eden Valley, Minnesota
Current Conditions -  °F | °C
As of 9:14 PM on Monday 26 Jan 2015 (Local Time) from KPEX Reporting Station
Overcast Overcast  
Wind Chill: 23°   Ceiling: 1600
Heat Index: 30°   Visibility: 10mi
Dew Point: 28°   Wind: 8mph
Humidity: 90%   Direction: 260°W
Pressure: 29.97"   Gusts: NA
Location:  45.33°N, 94.55°W
Report Text: KPEX 270314Z AUTO 26007KT 10SM OVC016 M01/M02 A2997 RMK AO2 T10101024
Loading
Personal Weather Stations






























Interactive Weather Map New forecast layout! Learn more

10-Day Weather Forecast

Advertisements
Track Severe Weather on mobile